createdAt,value
2022-12-20T00:00:42.803Z,100.00
2022-12-20T00:03:40.370Z,100.00
2022-12-20T00:06:28.356Z,100.00
2022-12-20T00:09:14.965Z,100.00
2022-12-20T00:12:05.945Z,100.00
2022-12-20T00:14:50.212Z,100.00
2022-12-20T00:17:37.802Z,100.00
2022-12-20T00:20:32.924Z,100.00
2022-12-20T00:23:24.245Z,100.00
2022-12-20T00:26:20.142Z,100.00
2022-12-20T00:29:16.059Z,100.00
2022-12-20T00:31:56.875Z,100.00
2022-12-20T00:34:48.631Z,100.00
2022-12-20T00:37:28.710Z,100.00
2022-12-20T00:40:20.774Z,100.00
2022-12-20T00:43:08.229Z,100.00
2022-12-20T00:45:51.039Z,100.00
2022-12-20T00:48:38.724Z,100.00
2022-12-20T00:51:42.727Z,100.00
2022-12-20T00:54:35.041Z,100.00
2022-12-20T00:57:16.741Z,100.00
2022-12-20T00:59:49.400Z,100.00
2022-12-20T01:02:36.900Z,100.00
2022-12-20T01:05:25.405Z,100.00
2022-12-20T01:08:25.199Z,100.00
2022-12-20T01:11:50.522Z,100.00
2022-12-20T01:14:32.127Z,100.00
2022-12-20T01:17:21.265Z,100.00
2022-12-20T01:20:09.758Z,100.00
2022-12-20T01:23:01.825Z,100.00
2022-12-20T01:25:55.641Z,100.00
2022-12-20T01:28:52.780Z,100.00
2022-12-20T01:31:38.959Z,100.00
2022-12-20T01:34:25.180Z,100.00
2022-12-20T01:37:11.925Z,100.00
2022-12-20T01:39:58.270Z,100.00
2022-12-20T01:42:40.322Z,100.00
2022-12-20T01:45:35.394Z,100.00
2022-12-20T01:48:31.249Z,100.00
2022-12-20T01:51:15.458Z,100.00
2022-12-20T01:54:01.695Z,100.00
2022-12-20T01:56:55.199Z,100.00
2022-12-20T01:59:50.102Z,100.00
2022-12-20T02:02:34.959Z,100.00
2022-12-20T02:05:26.085Z,100.00
2022-12-20T02:08:18.515Z,100.00
2022-12-20T02:11:23.965Z,100.00
2022-12-20T02:14:20.654Z,100.00
2022-12-20T02:17:36.510Z,100.00
2022-12-20T02:20:38.651Z,100.00
2022-12-20T02:23:53.827Z,100.00
2022-12-20T02:27:33.387Z,100.00
2022-12-20T02:30:34.285Z,100.00
2022-12-20T02:33:20.526Z,100.00
2022-12-20T02:36:02.456Z,100.00
2022-12-20T02:38:52.919Z,100.00
2022-12-20T02:45:03.275Z,100.00
2022-12-20T02:48:17.875Z,100.00
2022-12-20T02:51:03.917Z,100.00
2022-12-20T02:53:53.457Z,100.00
2022-12-20T02:56:45.846Z,100.00
2022-12-20T02:59:47.765Z,100.00
2022-12-20T03:02:49.950Z,100.00
2022-12-20T03:05:46.796Z,100.00
2022-12-20T03:08:36.851Z,100.00
2022-12-20T03:11:23.876Z,100.00
2022-12-20T03:14:15.831Z,100.00
2022-12-20T03:17:00.747Z,100.00
2022-12-20T03:19:44.485Z,100.00
2022-12-20T03:22:37.178Z,100.00
2022-12-20T03:25:26.137Z,100.00
2022-12-20T03:28:15.072Z,100.00
2022-12-20T03:31:03.700Z,100.00
2022-12-20T03:33:47.274Z,100.00
2022-12-20T03:36:35.938Z,100.00
2022-12-20T03:39:35.330Z,100.00
2022-12-20T03:42:21.017Z,100.00
2022-12-20T03:45:10.064Z,100.00
2022-12-20T03:47:54.588Z,100.00
2022-12-20T03:50:40.796Z,100.00
2022-12-20T03:53:22.581Z,100.00
2022-12-20T03:56:14.221Z,100.00
2022-12-20T03:59:11.147Z,100.00
2022-12-20T04:02:00.382Z,100.00
2022-12-20T04:04:48.262Z,100.00
2022-12-20T04:07:32.197Z,100.00
2022-12-20T04:10:21.477Z,100.00
2022-12-20T04:13:02.393Z,100.00
2022-12-20T04:16:10.292Z,100.00
2022-12-20T04:19:02.787Z,100.00
2022-12-20T04:22:05.121Z,100.00
2022-12-20T04:24:58.803Z,100.00
2022-12-20T04:27:41.264Z,100.00
2022-12-20T04:30:26.699Z,100.00
2022-12-20T04:33:15.554Z,100.00
2022-12-20T04:35:54.383Z,100.00
2022-12-20T04:38:41.489Z,100.00
2022-12-20T04:41:27.481Z,100.00
2022-12-20T04:44:16.795Z,100.00
2022-12-20T04:47:10.282Z,100.00
2022-12-20T04:49:56.687Z,100.00
2022-12-20T04:53:05.579Z,100.00
2022-12-20T04:55:52.191Z,100.00
2022-12-20T04:58:56.469Z,100.00
2022-12-20T05:01:44.815Z,100.00
2022-12-20T05:04:40.476Z,100.00
2022-12-20T05:07:35.039Z,100.00
2022-12-20T05:10:18.860Z,100.00
2022-12-20T05:13:09.401Z,100.00
2022-12-20T05:16:00.402Z,100.00
2022-12-20T05:19:01.099Z,100.00
2022-12-20T05:22:13.109Z,100.00
2022-12-20T05:25:14.445Z,100.00
2022-12-20T05:28:07.137Z,100.00
2022-12-20T05:30:58.813Z,100.00
2022-12-20T05:33:41.574Z,100.00
2022-12-20T05:36:28.913Z,100.00
2022-12-20T05:39:30.491Z,100.00
2022-12-20T05:42:29.750Z,100.00
2022-12-20T05:45:29.702Z,100.00
2022-12-20T05:48:16.785Z,100.00
2022-12-20T05:51:12.910Z,100.00
2022-12-20T05:54:25.797Z,100.00
2022-12-20T05:57:23.751Z,100.00
2022-12-20T06:00:18.435Z,100.00
2022-12-20T06:03:25.043Z,100.00
2022-12-20T06:06:14.588Z,100.00
2022-12-20T06:09:04.222Z,100.00
2022-12-20T06:11:57.582Z,100.00
2022-12-20T06:14:39.227Z,100.00
2022-12-20T06:17:21.997Z,100.00
2022-12-20T06:20:11.042Z,100.00
2022-12-20T06:23:02.288Z,100.00
2022-12-20T06:25:59.533Z,100.00
2022-12-20T06:29:20.982Z,100.00
2022-12-20T06:32:37.767Z,100.00
2022-12-20T06:38:34.888Z,100.00
2022-12-20T06:41:15.701Z,100.00
2022-12-20T06:43:56.687Z,100.00
2022-12-20T06:46:37.782Z,100.00
2022-12-20T06:49:13.044Z,100.00
2022-12-20T06:52:15.942Z,100.00
2022-12-20T06:55:15.022Z,100.00
2022-12-20T06:57:59.767Z,100.00
2022-12-20T07:00:57.139Z,100.00
2022-12-20T07:03:46.543Z,100.00
2022-12-20T07:06:51.650Z,100.00
2022-12-20T07:09:47.920Z,100.00
2022-12-20T07:12:56.670Z,100.00
2022-12-20T07:15:41.646Z,100.00
2022-12-20T07:18:41.450Z,100.00
2022-12-20T07:21:31.516Z,100.00
2022-12-20T07:24:09.538Z,100.00
2022-12-20T07:26:59.780Z,100.00
2022-12-20T07:29:51.667Z,100.00
2022-12-20T07:32:30.043Z,100.00
2022-12-20T07:35:08.937Z,100.00
2022-12-20T07:37:53.113Z,100.00
2022-12-20T07:40:51.113Z,100.00
2022-12-20T07:43:44.605Z,100.00
2022-12-20T07:46:34.945Z,100.00
2022-12-20T07:49:19.570Z,100.00
2022-12-20T07:52:07.880Z,100.00
2022-12-20T07:55:07.608Z,100.00
2022-12-20T07:58:03.721Z,100.00
2022-12-20T08:00:51.993Z,100.00
2022-12-20T08:03:54.729Z,100.00
2022-12-20T08:06:45.611Z,100.00
2022-12-20T08:09:31.740Z,100.00
2022-12-20T08:12:19.358Z,100.00
2022-12-20T08:14:56.712Z,100.00
2022-12-20T08:17:43.611Z,100.00
2022-12-20T08:20:22.107Z,100.00
2022-12-20T08:23:06.553Z,100.00
2022-12-20T08:25:55.918Z,100.00
2022-12-20T08:28:39.850Z,100.00
2022-12-20T08:31:24.249Z,100.00
2022-12-20T08:34:10.849Z,100.00
2022-12-20T08:36:57.081Z,100.00
2022-12-20T08:39:39.397Z,100.00
2022-12-20T08:42:43.150Z,100.00
2022-12-20T08:45:28.746Z,100.00
2022-12-20T08:48:31.807Z,100.00
2022-12-20T08:51:16.573Z,100.00
2022-12-20T08:54:07.401Z,100.00
2022-12-20T08:56:48.848Z,100.00
2022-12-20T08:59:36.209Z,100.00
2022-12-20T09:02:14.050Z,100.00
2022-12-20T09:05:12.953Z,100.00
2022-12-20T09:08:07.655Z,100.00
2022-12-20T09:10:55.251Z,100.00
2022-12-20T09:13:44.287Z,100.00
2022-12-20T09:16:35.272Z,100.00
2022-12-20T09:19:23.175Z,100.00
2022-12-20T09:22:17.007Z,100.00
2022-12-20T09:25:00.370Z,98.81
2022-12-20T09:27:47.706Z,99.60
2022-12-20T09:30:38.633Z,100.00
2022-12-20T09:33:19.965Z,99.76
2022-12-20T09:36:00.392Z,99.24
2022-12-20T09:38:52.567Z,99.08
2022-12-20T09:41:44.319Z,99.17
2022-12-20T09:45:00.611Z,97.69
2022-12-20T09:47:52.576Z,97.29
2022-12-20T09:50:58.395Z,96.99
2022-12-20T09:54:07.650Z,95.89
2022-12-20T09:57:07.017Z,95.82
2022-12-20T09:59:53.292Z,96.12
2022-12-20T10:02:57.049Z,95.28
2022-12-20T10:05:54.980Z,94.21
2022-12-20T10:08:50.078Z,93.47
2022-12-20T10:11:52.791Z,93.42
2022-12-20T10:14:47.719Z,92.49
2022-12-20T10:17:39.588Z,92.64
2022-12-20T10:20:58.850Z,93.27
2022-12-20T10:24:30.165Z,92.52
2022-12-20T10:27:24.817Z,92.50
2022-12-20T10:30:16.169Z,90.87
2022-12-20T10:32:58.579Z,90.94
2022-12-20T10:35:46.819Z,90.29
2022-12-20T10:38:26.953Z,89.12
2022-12-20T10:41:21.333Z,90.08
2022-12-20T10:44:36.379Z,91.12
2022-12-20T10:47:50.111Z,90.80
2022-12-20T10:50:32.072Z,88.28
2022-12-20T10:53:35.648Z,89.43
2022-12-20T10:56:31.891Z,88.44
2022-12-20T10:59:26.869Z,88.07
2022-12-20T11:02:06.004Z,88.31
2022-12-20T11:05:00.685Z,89.28
2022-12-20T11:07:38.741Z,88.64
2022-12-20T11:10:42.023Z,89.12
2022-12-20T11:13:32.727Z,89.92
2022-12-20T11:16:35.591Z,90.09
2022-12-20T11:19:27.142Z,89.88
2022-12-20T11:22:22.834Z,88.48
2022-12-20T11:25:39.777Z,87.68
2022-12-20T11:28:39.964Z,87.48
2022-12-20T11:32:00.253Z,88.20
2022-12-20T11:34:56.041Z,87.91
2022-12-20T11:37:55.390Z,88.66
2022-12-20T11:41:11.691Z,87.83
2022-12-20T11:47:32.828Z,88.77
2022-12-20T11:50:47.844Z,88.84
2022-12-20T11:53:57.437Z,89.60
2022-12-20T11:56:43.579Z,88.75
2022-12-20T11:59:52.185Z,89.53
2022-12-20T12:03:12.085Z,89.01
2022-12-20T12:06:16.224Z,88.60
2022-12-20T12:09:10.987Z,87.32
2022-12-20T12:12:21.354Z,86.72
2022-12-20T12:15:17.618Z,86.63
2022-12-20T12:18:19.718Z,86.32
2022-12-20T12:21:24.669Z,87.66
2022-12-20T12:24:25.413Z,88.43
2022-12-20T12:27:16.261Z,87.76
2022-12-20T12:29:46.761Z,88.70
2022-12-20T12:32:46.956Z,89.45
2022-12-20T12:35:44.055Z,89.98
2022-12-20T12:38:39.853Z,90.02
2022-12-20T12:41:52.277Z,90.21
2022-12-20T12:44:39.571Z,90.07
2022-12-20T12:47:43.519Z,89.31
2022-12-20T12:50:39.775Z,89.74
2022-12-20T12:53:39.642Z,89.66
2022-12-20T12:57:04.785Z,90.57
2022-12-20T12:59:58.630Z,92.70
2022-12-20T13:02:53.948Z,94.28
2022-12-20T13:05:37.690Z,93.96
2022-12-20T13:08:21.787Z,94.99
2022-12-20T13:11:14.819Z,94.12
2022-12-20T13:13:50.607Z,96.57
2022-12-20T13:20:05.772Z,96.95
2022-12-20T13:22:46.090Z,97.98
2022-12-20T13:25:39.711Z,99.29
2022-12-20T13:28:47.963Z,100.00
2022-12-20T13:31:43.413Z,100.00
2022-12-20T13:34:42.405Z,100.00
2022-12-20T13:38:06.155Z,100.00
2022-12-20T13:40:45.060Z,100.00
2022-12-20T13:43:44.474Z,100.00
2022-12-20T13:46:45.842Z,100.00
2022-12-20T13:49:49.116Z,100.00
2022-12-20T13:52:41.646Z,100.00
2022-12-20T13:56:00.137Z,100.00
2022-12-20T13:59:07.575Z,100.00
2022-12-20T14:01:57.460Z,100.00
2022-12-20T14:04:59.380Z,100.00
2022-12-20T14:07:52.793Z,100.00
2022-12-20T14:10:29.110Z,100.00
2022-12-20T14:13:25.902Z,100.00
2022-12-20T14:16:29.008Z,100.00
2022-12-20T14:19:13.753Z,100.00
2022-12-20T14:21:59.889Z,100.00
2022-12-20T14:24:51.910Z,100.00
2022-12-20T14:27:47.649Z,100.00
2022-12-20T14:31:06.245Z,100.00
2022-12-20T14:33:50.612Z,100.00
2022-12-20T14:36:32.751Z,100.00
2022-12-20T14:39:36.177Z,100.00
2022-12-20T14:42:20.273Z,100.00
2022-12-20T14:45:24.560Z,100.00
2022-12-20T14:48:12.338Z,100.00
2022-12-20T14:50:56.927Z,100.00
2022-12-20T14:53:39.266Z,100.00
2022-12-20T14:56:31.699Z,100.00
2022-12-20T14:59:43.482Z,100.00
2022-12-20T15:02:39.978Z,100.00
2022-12-20T15:05:54.169Z,100.00
2022-12-20T15:08:33.720Z,100.00
2022-12-20T15:11:23.037Z,100.00
2022-12-20T15:14:02.441Z,100.00
2022-12-20T15:16:55.333Z,100.00
2022-12-20T15:19:38.877Z,100.00
2022-12-20T15:22:50.092Z,100.00
2022-12-20T15:25:45.165Z,100.00
2022-12-20T15:28:40.534Z,100.00
2022-12-20T15:31:34.327Z,100.00
2022-12-20T15:34:25.657Z,100.00
2022-12-20T15:37:06.473Z,100.00
2022-12-20T15:39:45.625Z,100.00
2022-12-20T15:45:37.676Z,100.00
2022-12-20T15:48:24.717Z,100.00
2022-12-20T15:51:21.423Z,100.00
2022-12-20T15:54:05.470Z,100.00
2022-12-20T15:56:49.080Z,100.00
2022-12-20T16:02:40.520Z,100.00
2022-12-20T16:05:36.521Z,100.00
2022-12-20T16:08:11.767Z,100.00
2022-12-20T16:11:01.051Z,100.00
2022-12-20T16:13:44.071Z,100.00
2022-12-20T16:16:26.775Z,100.00
2022-12-20T16:19:10.934Z,100.00
2022-12-20T16:22:01.425Z,100.00
2022-12-20T16:24:53.320Z,100.00
2022-12-20T16:27:40.130Z,100.00
2022-12-20T16:30:32.614Z,100.00
2022-12-20T16:33:21.381Z,100.00
2022-12-20T16:36:05.675Z,100.00
2022-12-20T16:39:00.698Z,100.00
2022-12-20T16:41:47.870Z,100.00
2022-12-20T16:44:33.202Z,100.00
2022-12-20T16:47:14.834Z,100.00
2022-12-20T16:50:05.083Z,100.00
2022-12-20T16:52:38.205Z,100.00
2022-12-20T16:55:37.695Z,100.00
2022-12-20T16:58:38.656Z,100.00
2022-12-20T17:01:38.460Z,100.00
2022-12-20T17:04:21.494Z,100.00
2022-12-20T17:07:12.210Z,100.00
2022-12-20T17:12:52.954Z,100.00
2022-12-20T17:15:39.169Z,100.00
2022-12-20T17:18:25.453Z,100.00
2022-12-20T17:21:01.164Z,100.00
2022-12-20T17:23:53.754Z,100.00
2022-12-20T17:26:40.653Z,100.00
2022-12-20T17:29:21.756Z,100.00
2022-12-20T17:32:03.091Z,100.00
2022-12-20T17:34:43.520Z,100.00
2022-12-20T17:37:32.555Z,100.00
2022-12-20T17:40:17.153Z,100.00
2022-12-20T17:42:58.506Z,100.00
2022-12-20T17:45:48.595Z,100.00
2022-12-20T17:48:33.917Z,100.00
2022-12-20T17:51:30.969Z,100.00
2022-12-20T17:54:09.788Z,100.00
2022-12-20T17:56:58.056Z,100.00
2022-12-20T17:59:42.559Z,100.00
2022-12-20T18:02:37.524Z,100.00
2022-12-20T18:05:31.470Z,100.00
2022-12-20T18:08:19.426Z,100.00
2022-12-20T18:11:07.137Z,100.00
2022-12-20T18:13:47.953Z,100.00
2022-12-20T18:16:36.332Z,100.00
2022-12-20T18:19:21.566Z,100.00
2022-12-20T18:22:06.666Z,100.00
2022-12-20T18:24:50.541Z,100.00
2022-12-20T18:27:30.576Z,100.00
2022-12-20T18:30:25.711Z,100.00
2022-12-20T18:33:01.748Z,100.00
2022-12-20T18:35:49.503Z,100.00
2022-12-20T18:38:44.808Z,100.00
2022-12-20T18:41:33.283Z,100.00
2022-12-20T18:44:43.253Z,100.00
2022-12-20T18:47:32.482Z,100.00
2022-12-20T18:50:24.109Z,100.00
2022-12-20T18:53:14.646Z,100.00
2022-12-20T18:55:58.378Z,100.00
2022-12-20T18:58:48.942Z,100.00
2022-12-20T19:01:50.442Z,100.00
2022-12-20T19:04:45.312Z,100.00
2022-12-20T19:07:34.138Z,100.00
2022-12-20T19:10:22.656Z,100.00
2022-12-20T19:13:06.117Z,100.00
2022-12-20T19:15:42.507Z,100.00
2022-12-20T19:18:25.993Z,100.00
2022-12-20T19:21:12.959Z,100.00
2022-12-20T19:24:09.858Z,100.00
2022-12-20T19:27:01.145Z,100.00
2022-12-20T19:29:57.710Z,100.00
2022-12-20T19:32:35.758Z,100.00
2022-12-20T19:35:52.781Z,100.00
2022-12-20T19:38:29.817Z,100.00
2022-12-20T19:41:21.104Z,100.00
2022-12-20T19:44:06.318Z,100.00
2022-12-20T19:46:50.081Z,100.00
2022-12-20T19:49:30.958Z,100.00
2022-12-20T19:52:29.002Z,100.00
2022-12-20T19:55:26.867Z,100.00
2022-12-20T19:58:10.563Z,100.00
2022-12-20T20:00:55.959Z,100.00
2022-12-20T20:03:49.253Z,100.00
2022-12-20T20:06:33.367Z,100.00
2022-12-20T20:09:20.418Z,100.00
2022-12-20T20:12:11.608Z,100.00
2022-12-20T20:14:55.252Z,100.00
2022-12-20T20:17:42.482Z,100.00
2022-12-20T20:20:23.242Z,100.00
2022-12-20T20:23:09.557Z,100.00
2022-12-20T20:25:58.830Z,100.00
2022-12-20T20:28:45.099Z,100.00
2022-12-20T20:31:30.791Z,100.00
2022-12-20T20:34:10.659Z,100.00
2022-12-20T20:36:56.902Z,100.00
2022-12-20T20:39:34.235Z,100.00
2022-12-20T20:42:23.092Z,100.00
2022-12-20T20:44:58.835Z,100.00
2022-12-20T20:47:47.506Z,100.00
2022-12-20T20:50:28.072Z,100.00
2022-12-20T20:53:16.074Z,100.00
2022-12-20T20:55:59.985Z,100.00
2022-12-20T20:58:39.244Z,100.00
2022-12-20T21:01:22.584Z,100.00
2022-12-20T21:04:03.791Z,100.00
2022-12-20T21:06:49.063Z,100.00
2022-12-20T21:09:32.266Z,100.00
2022-12-20T21:12:12.700Z,100.00
2022-12-20T21:15:21.309Z,100.00
2022-12-20T21:17:57.154Z,100.00
2022-12-20T21:20:41.449Z,100.00
2022-12-20T21:23:20.821Z,100.00
2022-12-20T21:26:07.854Z,100.00
2022-12-20T21:28:47.113Z,100.00
2022-12-20T21:31:33.720Z,100.00
2022-12-20T21:34:20.627Z,100.00
2022-12-20T21:37:10.160Z,100.00
2022-12-20T21:39:53.694Z,100.00
2022-12-20T21:42:35.616Z,100.00
2022-12-20T21:45:22.658Z,100.00
2022-12-20T21:48:04.199Z,100.00
2022-12-20T21:50:42.555Z,100.00
2022-12-20T21:53:37.524Z,100.00
2022-12-20T21:56:24.581Z,100.00
2022-12-20T21:59:02.700Z,100.00
2022-12-20T22:01:45.888Z,100.00
2022-12-20T22:04:29.768Z,100.00
2022-12-20T22:07:09.163Z,100.00
2022-12-20T22:10:05.882Z,100.00
2022-12-20T22:12:55.432Z,100.00
2022-12-20T22:15:36.634Z,100.00
2022-12-20T22:18:15.753Z,100.00
2022-12-20T22:20:56.740Z,100.00
2022-12-20T22:23:35.377Z,100.00
2022-12-20T22:26:17.854Z,100.00
2022-12-20T22:29:12.208Z,100.00
2022-12-20T22:31:53.042Z,100.00
2022-12-20T22:34:43.678Z,100.00
2022-12-20T22:37:27.569Z,100.00
2022-12-20T22:40:09.855Z,100.00
2022-12-20T22:42:57.946Z,100.00
2022-12-20T22:45:41.731Z,100.00
2022-12-20T22:48:18.007Z,100.00
2022-12-20T22:51:21.628Z,100.00
2022-12-20T22:54:07.366Z,100.00
2022-12-20T22:56:49.593Z,100.00
2022-12-20T22:59:43.653Z,100.00
2022-12-20T23:02:24.678Z,100.00
2022-12-20T23:05:17.823Z,100.00
2022-12-20T23:07:55.460Z,100.00
2022-12-20T23:10:58.138Z,100.00
2022-12-20T23:13:59.794Z,100.00
2022-12-20T23:16:43.635Z,100.00
2022-12-20T23:19:25.668Z,100.00
2022-12-20T23:22:17.102Z,100.00
2022-12-20T23:25:02.763Z,100.00
2022-12-20T23:27:40.548Z,100.00
2022-12-20T23:30:27.116Z,100.00
2022-12-20T23:33:15.501Z,100.00
2022-12-20T23:36:08.195Z,100.00
2022-12-20T23:38:39.265Z,100.00
2022-12-20T23:41:26.596Z,100.00
2022-12-20T23:44:19.956Z,100.00
2022-12-20T23:47:01.049Z,100.00
2022-12-20T23:49:48.637Z,100.00
2022-12-20T23:52:29.347Z,100.00
2022-12-20T23:55:07.702Z,100.00
2022-12-20T23:57:48.076Z,100.00
